Time;durP1;ratioP1;P1;durP2;ratioP2;P2;SDS_P1;SDS_P2;PMS_P1;PMS_P2;Temp;Humidity;BMP_temperature;BMP_pressure;BME280_temperature;BME280_humidity;BME280_pressure;Samples;Min_cycle;Max_cycle;Signal;HPM_P1;HPM_P2
2022/12/02 00:00:47;;;;;;;;;42.50;38.75;;;;;;;;5078600;28;45327;-71
2022/12/02 00:03:15;;;;;;;;;42.75;36.50;;;;;;;;5080184;27;45503;-70
2022/12/02 00:05:40;;;;;;;;;56.75;41.25;;;;;;;;5085010;27;47946;-71
2022/12/02 00:08:36;;;;;;;;;45.25;39.00;;;;;;;;5092421;27;45347;-71
2022/12/02 00:11:05;;;;;;;;;55.00;44.00;;;;;;;;5065923;28;45659;-71
2022/12/02 00:13:39;;;;;;;;;46.50;39.00;;;;;;;;5090524;27;45255;-71
2022/12/02 00:16:04;;;;;;;;;51.50;41.25;;;;;;;;5083128;27;45339;-71
2022/12/02 00:18:30;;;;;;;;;48.25;37.75;;;;;;;;5087725;27;45412;-71
2022/12/02 00:20:55;;;;;;;;;59.75;46.25;;;;;;;;5082023;27;45229;-71
2022/12/02 00:23:21;;;;;;;;;54.25;42.00;;;;;;;;5089245;27;45256;-71
2022/12/02 00:25:50;;;;;;;;;52.75;40.00;;;;;;;;5081512;27;46035;-71
2022/12/02 00:28:16;;;;;;;;;50.50;41.00;;;;;;;;5083979;27;45621;-71
2022/12/02 00:30:42;;;;;;;;;25.75;23.25;;;;;;;;5087140;27;44828;-72
2022/12/02 00:33:07;;;;;;;;;54.75;43.50;;;;;;;;5086559;27;45725;-71
2022/12/02 00:35:32;;;;;;;;;50.75;38.75;;;;;;;;5093544;27;48191;-70
2022/12/02 00:37:58;;;;;;;;;55.75;40.50;;;;;;;;5086029;27;45370;-71
2022/12/02 00:40:23;;;;;;;;;44.50;34.00;;;;;;;;5082760;27;45310;-71
2022/12/02 00:42:48;;;;;;;;;48.50;39.50;;;;;;;;5082178;27;45444;-71
2022/12/02 00:47:57;;;;;;;;;48.25;40.00;;;;;;;;5083211;27;44752;-71
2022/12/02 00:50:23;;;;;;;;;52.00;41.75;;;;;;;;5081712;27;45240;-71
2022/12/02 00:52:48;;;;;;;;;54.75;40.00;;;;;;;;5082443;27;45658;-71
2022/12/02 00:55:14;;;;;;;;;56.75;44.00;;;;;;;;5081367;27;45440;-71
2022/12/02 00:57:39;;;;;;;;;47.75;37.50;;;;;;;;5085639;27;45343;-71
2022/12/02 01:00:05;;;;;;;;;51.00;39.00;;;;;;;;5081294;27;45429;-71
2022/12/02 01:02:30;;;;;;;;;50.75;40.25;;;;;;;;5082984;27;45651;-71
2022/12/02 01:04:55;;;;;;;;;53.00;41.50;;;;;;;;5081057;27;46163;-71
2022/12/02 01:07:20;;;;;;;;;52.75;41.75;;;;;;;;5083446;27;45199;-71
2022/12/02 01:09:45;;;;;;;;;54.75;38.50;;;;;;;;5081337;27;45212;-71
2022/12/02 01:12:11;;;;;;;;;49.50;39.00;;;;;;;;5082915;27;45162;-71
2022/12/02 01:14:36;;;;;;;;;55.00;41.75;;;;;;;;5089483;27;45613;-71
2022/12/02 01:17:01;;;;;;;;;52.25;41.50;;;;;;;;5081714;27;45410;-71
2022/12/02 01:19:26;;;;;;;;;49.25;40.00;;;;;;;;5083806;27;45373;-71
2022/12/02 01:21:51;;;;;;;;;55.75;44.50;;;;;;;;5080543;27;45165;-71
2022/12/02 01:24:17;;;;;;;;;63.25;46.50;;;;;;;;5084992;27;45314;-71
2022/12/02 01:26:42;;;;;;;;;59.25;42.00;;;;;;;;5080256;27;45361;-71
2022/12/02 01:29:07;;;;;;;;;50.00;40.00;;;;;;;;5083264;27;45225;-71
2022/12/02 01:31:33;;;;;;;;;52.50;40.75;;;;;;;;5080498;27;45211;-71
2022/12/02 01:33:58;;;;;;;;;51.75;39.25;;;;;;;;5086219;27;46237;-71
2022/12/02 01:36:23;;;;;;;;;46.25;38.75;;;;;;;;5088316;27;45208;-71
2022/12/02 01:38:48;;;;;;;;;51.50;40.00;;;;;;;;5083104;27;45197;-71
2022/12/02 01:41:14;;;;;;;;;51.00;38.75;;;;;;;;5080255;27;45263;-71
2022/12/02 01:43:39;;;;;;;;;57.25;43.50;;;;;;;;5082668;27;45544;-72
2022/12/02 01:46:04;;;;;;;;;52.25;40.50;;;;;;;;5080337;27;45537;-72
2022/12/02 01:48:30;;;;;;;;;50.25;39.50;;;;;;;;5082903;27;45121;-71
2022/12/02 01:50:55;;;;;;;;;57.75;45.25;;;;;;;;5085713;27;45204;-71
2022/12/02 01:53:21;;;;;;;;;54.50;40.25;;;;;;;;5088092;27;45439;-71
2022/12/02 01:55:46;;;;;;;;;57.50;43.25;;;;;;;;5093449;27;45442;-71
2022/12/02 01:58:12;;;;;;;;;60.00;43.00;;;;;;;;5086179;27;45344;-71
2022/12/02 02:00:38;;;;;;;;;57.25;44.25;;;;;;;;5082849;27;45484;-71
2022/12/02 02:03:03;;;;;;;;;52.00;40.25;;;;;;;;5084774;27;45459;-71
2022/12/02 02:05:29;;;;;;;;;43.00;37.50;;;;;;;;5081639;27;45469;-71
2022/12/02 02:07:57;;;;;;;;;49.00;37.25;;;;;;;;5093440;27;45301;-71
2022/12/02 02:10:23;;;;;;;;;52.75;43.75;;;;;;;;5080132;27;45311;-71
2022/12/02 02:12:49;;;;;;;;;59.25;43.25;;;;;;;;5081119;27;45451;-71
2022/12/02 02:15:15;;;;;;;;;43.75;37.25;;;;;;;;5080099;27;45219;-71
2022/12/02 02:17:40;;;;;;;;;36.00;33.50;;;;;;;;5082366;27;45227;-73
2022/12/02 02:20:08;;;;;;;;;39.25;37.00;;;;;;;;5079820;27;45308;-71
2022/12/02 02:22:47;;;;;;;;;52.50;37.50;;;;;;;;5082107;27;45249;-71
2022/12/02 02:25:14;;;;;;;;;48.50;37.00;;;;;;;;5090991;27;45330;-72
2022/12/02 02:27:42;;;;;;;;;54.50;39.50;;;;;;;;5085352;27;45172;-71
2022/12/02 02:30:07;;;;;;;;;56.25;42.50;;;;;;;;5082872;27;45327;-72
2022/12/02 02:32:32;;;;;;;;;57.50;44.75;;;;;;;;5091407;27;46190;-71
2022/12/02 02:34:58;;;;;;;;;49.75;39.75;;;;;;;;5081881;27;44928;-71
2022/12/02 02:37:23;;;;;;;;;51.25;39.75;;;;;;;;5096303;27;45448;-72
2022/12/02 02:39:49;;;;;;;;;47.50;39.25;;;;;;;;5079679;27;45503;-71
2022/12/02 02:42:14;;;;;;;;;50.75;38.25;;;;;;;;5080958;27;45474;-71
2022/12/02 02:44:39;;;;;;;;;46.25;39.00;;;;;;;;5086567;27;45482;-71
2022/12/02 02:47:04;;;;;;;;;41.50;35.75;;;;;;;;5079722;27;45307;-71
2022/12/02 02:49:30;;;;;;;;;51.25;39.00;;;;;;;;5079333;27;45405;-71
2022/12/02 02:51:55;;;;;;;;;47.75;39.50;;;;;;;;5079833;27;46024;-71
2022/12/02 02:54:20;;;;;;;;;50.00;42.00;;;;;;;;5079257;27;45333;-71
2022/12/02 02:56:45;;;;;;;;;47.00;37.50;;;;;;;;5084370;27;45412;-71
2022/12/02 02:59:12;;;;;;;;;58.50;42.00;;;;;;;;5079395;27;45402;-71
2022/12/02 03:01:37;;;;;;;;;53.25;41.50;;;;;;;;5088339;27;46334;-71
2022/12/02 03:04:05;;;;;;;;;45.50;38.50;;;;;;;;5080506;27;45182;-71
2022/12/02 03:06:32;;;;;;;;;50.25;39.00;;;;;;;;5079613;27;45497;-71
2022/12/02 03:08:58;;;;;;;;;53.25;41.00;;;;;;;;5081517;27;45360;-71
2022/12/02 03:11:24;;;;;;;;;43.00;38.50;;;;;;;;5077157;28;47024;-71
2022/12/02 03:13:50;;;;;;;;;47.50;37.50;;;;;;;;5085459;27;44764;-71
2022/12/02 03:16:18;;;;;;;;;56.50;41.50;;;;;;;;5077835;27;45433;-71
2022/12/02 03:18:44;;;;;;;;;54.00;42.25;;;;;;;;5081423;27;45720;-71
2022/12/02 03:21:10;;;;;;;;;38.00;32.50;;;;;;;;5078648;27;45251;-71
2022/12/02 03:23:36;;;;;;;;;37.75;34.25;;;;;;;;5091685;27;45197;-70
2022/12/02 03:26:01;;;;;;;;;49.50;40.50;;;;;;;;5079782;27;45519;-71
2022/12/02 03:28:27;;;;;;;;;44.25;37.50;;;;;;;;5081117;27;45545;-71
2022/12/02 03:30:52;;;;;;;;;41.00;35.25;;;;;;;;5078811;28;45427;-71
2022/12/02 03:33:17;;;;;;;;;50.00;40.75;;;;;;;;5081039;27;45455;-71
2022/12/02 03:35:43;;;;;;;;;52.00;37.75;;;;;;;;5092721;27;45619;-71
2022/12/02 03:38:08;;;;;;;;;49.25;39.25;;;;;;;;5086624;27;45488;-71
2022/12/02 03:40:33;;;;;;;;;52.75;39.00;;;;;;;;5078826;28;45461;-71
2022/12/02 03:42:58;;;;;;;;;42.50;35.00;;;;;;;;5079770;27;45420;-71
2022/12/02 03:45:24;;;;;;;;;52.75;38.75;;;;;;;;5078930;27;45241;-71
2022/12/02 03:47:49;;;;;;;;;46.25;38.00;;;;;;;;5084078;27;45299;-71
2022/12/02 03:50:15;;;;;;;;;52.00;37.75;;;;;;;;5082233;27;45387;-71
2022/12/02 03:52:40;;;;;;;;;50.00;39.00;;;;;;;;5081641;27;44832;-71
2022/12/02 03:55:06;;;;;;;;;52.50;40.00;;;;;;;;5094332;27;45278;-71
2022/12/02 03:57:32;;;;;;;;;52.50;39.50;;;;;;;;5095947;27;45401;-71
2022/12/02 03:59:57;;;;;;;;;52.25;40.25;;;;;;;;5082245;27;46269;-71
2022/12/02 04:02:22;;;;;;;;;49.00;39.50;;;;;;;;5084781;27;45284;-71
2022/12/02 04:04:48;;;;;;;;;48.75;37.00;;;;;;;;5085587;27;45266;-71
2022/12/02 04:07:13;;;;;;;;;53.25;42.00;;;;;;;;5079968;27;45550;-71
2022/12/02 04:09:38;;;;;;;;;51.25;41.00;;;;;;;;5084573;27;45259;-71
2022/12/02 04:12:03;;;;;;;;;52.00;37.50;;;;;;;;5096392;27;46256;-71
2022/12/02 04:14:29;;;;;;;;;51.50;38.75;;;;;;;;5084288;27;45478;-71
2022/12/02 04:16:54;;;;;;;;;44.25;35.25;;;;;;;;5082083;27;45259;-71
2022/12/02 04:19:19;;;;;;;;;46.50;34.50;;;;;;;;5084014;27;45159;-71
2022/12/02 04:21:44;;;;;;;;;50.75;42.75;;;;;;;;5081871;27;45406;-71
2022/12/02 04:24:09;;;;;;;;;44.75;32.75;;;;;;;;5086224;27;45270;-72
2022/12/02 04:26:35;;;;;;;;;56.75;40.25;;;;;;;;5101881;27;45291;-71
2022/12/02 04:29:00;;;;;;;;;53.50;41.00;;;;;;;;5089975;27;45969;-71
2022/12/02 04:31:25;;;;;;;;;51.25;39.00;;;;;;;;5081664;27;45355;-72
2022/12/02 04:33:50;;;;;;;;;55.25;39.00;;;;;;;;5085087;27;45378;-71
2022/12/02 04:36:15;;;;;;;;;47.75;36.75;;;;;;;;5087511;27;45850;-71
2022/12/02 04:38:40;;;;;;;;;50.75;40.00;;;;;;;;5094255;27;45215;-71
2022/12/02 04:41:06;;;;;;;;;51.00;38.00;;;;;;;;5083024;27;45432;-71
2022/12/02 04:43:31;;;;;;;;;51.00;39.50;;;;;;;;5093173;27;45422;-71
2022/12/02 04:45:56;;;;;;;;;51.50;39.75;;;;;;;;5087699;27;45276;-72
2022/12/02 04:48:21;;;;;;;;;46.75;40.75;;;;;;;;5083966;27;45302;-71
2022/12/02 04:50:47;;;;;;;;;41.00;35.50;;;;;;;;5089704;27;45451;-71
2022/12/02 04:53:12;;;;;;;;;58.25;42.50;;;;;;;;5084039;27;45301;-71
2022/12/02 04:55:37;;;;;;;;;53.75;42.25;;;;;;;;5081246;27;45355;-71
2022/12/02 04:58:02;;;;;;;;;55.00;40.00;;;;;;;;5083747;27;46286;-72
2022/12/02 05:00:27;;;;;;;;;47.00;39.75;;;;;;;;5083199;27;45311;-72
2022/12/02 05:02:53;;;;;;;;;48.75;41.00;;;;;;;;5083973;27;45287;-71
2022/12/02 05:05:18;;;;;;;;;50.50;38.75;;;;;;;;5081024;27;45322;-72
2022/12/02 05:07:43;;;;;;;;;55.50;40.50;;;;;;;;5083252;27;45462;-72
2022/12/02 05:10:08;;;;;;;;;47.00;39.75;;;;;;;;5087130;27;45505;-72
2022/12/02 05:12:34;;;;;;;;;57.50;40.50;;;;;;;;5099375;27;45509;-72
2022/12/02 05:14:59;;;;;;;;;44.50;38.00;;;;;;;;5091068;27;45477;-72
2022/12/02 05:17:24;;;;;;;;;37.50;27.75;;;;;;;;5081202;27;46063;-72
2022/12/02 05:19:49;;;;;;;;;51.25;39.25;;;;;;;;5083005;27;45386;-72
2022/12/02 05:22:14;;;;;;;;;46.75;35.50;;;;;;;;5080908;27;45336;-72
2022/12/02 05:24:40;;;;;;;;;33.50;24.25;;;;;;;;5084991;27;47130;-71
2022/12/02 05:27:05;;;;;;;;;49.75;40.25;;;;;;;;5089049;27;45393;-71
2022/12/02 05:29:30;;;;;;;;;50.50;40.25;;;;;;;;5083865;27;45386;-71
2022/12/02 05:31:55;;;;;;;;;54.25;42.25;;;;;;;;5080857;27;44802;-72
2022/12/02 05:34:21;;;;;;;;;49.25;40.75;;;;;;;;5087546;27;45264;-72
2022/12/02 05:36:46;;;;;;;;;48.50;39.50;;;;;;;;5080528;27;45378;-72
2022/12/02 05:39:11;;;;;;;;;51.25;39.00;;;;;;;;5087473;27;45275;-72
2022/12/02 05:41:37;;;;;;;;;56.75;42.50;;;;;;;;5080576;27;45384;-72
2022/12/02 05:44:12;;;;;;;;;57.25;42.00;;;;;;;;5083338;27;45355;-72
2022/12/02 05:46:37;;;;;;;;;45.00;36.75;;;;;;;;5080330;27;46076;-72
2022/12/02 05:49:04;;;;;;;;;60.00;43.75;;;;;;;;5082809;27;45418;-71
2022/12/02 05:51:30;;;;;;;;;59.50;42.00;;;;;;;;5080663;27;45263;-72
2022/12/02 05:53:55;;;;;;;;;52.00;40.75;;;;;;;;5083321;27;45593;-71
2022/12/02 05:56:24;;;;;;;;;64.25;45.25;;;;;;;;5082131;27;45524;-72
2022/12/02 05:58:49;;;;;;;;;59.25;42.25;;;;;;;;5087522;27;45286;-72
2022/12/02 06:01:31;;;;;;;;;57.25;43.00;;;;;;;;5080402;27;45307;-72
2022/12/02 06:03:57;;;;;;;;;60.75;44.00;;;;;;;;5085102;27;45296;-72
2022/12/02 06:06:24;;;;;;;;;47.25;39.75;;;;;;;;5080164;27;45334;-72
2022/12/02 06:08:49;;;;;;;;;51.75;42.00;;;;;;;;5081340;27;45357;-72
2022/12/02 06:11:20;;;;;;;;;60.25;46.00;;;;;;;;5080153;27;45337;-72
2022/12/02 06:13:45;;;;;;;;;54.50;39.50;;;;;;;;5082083;27;45375;-72
2022/12/02 06:16:17;;;;;;;;;55.00;41.00;;;;;;;;5079943;27;45299;-72
2022/12/02 06:18:42;;;;;;;;;54.00;40.25;;;;;;;;5081695;27;45299;-72
2022/12/02 06:21:12;;;;;;;;;53.00;41.00;;;;;;;;5078454;27;45229;-72
2022/12/02 06:23:42;;;;;;;;;52.00;40.50;;;;;;;;5082313;27;45492;-72
2022/12/02 06:26:07;;;;;;;;;48.00;39.00;;;;;;;;5080249;27;45687;-71
2022/12/02 06:28:37;;;;;;;;;52.50;41.75;;;;;;;;5091079;27;45421;-72
2022/12/02 06:31:10;;;;;;;;;53.50;39.25;;;;;;;;5080061;27;45384;-72
2022/12/02 06:33:36;;;;;;;;;58.25;46.00;;;;;;;;5081926;27;46043;-72
2022/12/02 06:36:03;;;;;;;;;58.25;41.50;;;;;;;;5084246;27;46568;-72
2022/12/02 06:38:30;;;;;;;;;45.25;31.25;;;;;;;;5079788;27;45464;-72
2022/12/02 06:40:58;;;;;;;;;52.75;40.25;;;;;;;;5079582;27;45237;-72
2022/12/02 06:43:28;;;;;;;;;51.75;39.75;;;;;;;;5081310;27;45821;-72
2022/12/02 06:45:54;;;;;;;;;62.00;47.00;;;;;;;;5079422;27;45498;-72
2022/12/02 06:48:22;;;;;;;;;57.50;44.00;;;;;;;;5087509;27;45343;-72
2022/12/02 06:50:47;;;;;;;;;55.50;41.25;;;;;;;;5079868;27;45279;-72
2022/12/02 06:53:12;;;;;;;;;49.75;39.00;;;;;;;;5081929;27;45328;-72
2022/12/02 06:55:37;;;;;;;;;55.25;42.00;;;;;;;;5080066;27;45335;-72
2022/12/02 06:58:22;;;;;;;;;59.25;44.00;;;;;;;;5087042;27;45396;-71
2022/12/02 07:00:48;;;;;;;;;54.50;40.00;;;;;;;;5079619;27;45288;-72
2022/12/02 07:03:28;;;;;;;;;52.25;39.50;;;;;;;;5082018;27;45304;-71
2022/12/02 07:05:54;;;;;;;;;54.50;43.25;;;;;;;;5079296;27;45310;-72
2022/12/02 07:08:20;;;;;;;;;56.25;44.25;;;;;;;;5081672;27;45272;-70
2022/12/02 07:10:45;;;;;;;;;45.00;39.75;;;;;;;;5079310;27;45409;-71
2022/12/02 07:13:15;;;;;;;;;54.25;42.00;;;;;;;;5087406;27;46197;-71
2022/12/02 07:15:41;;;;;;;;;58.25;45.25;;;;;;;;5078994;28;46285;-71
2022/12/02 07:18:14;;;;;;;;;61.00;43.25;;;;;;;;5081827;27;45509;-71
2022/12/02 07:20:42;;;;;;;;;46.50;36.75;;;;;;;;5079581;27;45286;-70
2022/12/02 07:23:15;;;;;;;;;58.25;45.50;;;;;;;;5081927;27;45273;-71
2022/12/02 07:25:45;;;;;;;;;64.50;45.25;;;;;;;;5076796;27;45267;-71
2022/12/02 07:28:21;;;;;;;;;62.00;47.25;;;;;;;;5078479;27;45378;-70
2022/12/02 07:30:51;;;;;;;;;57.25;45.75;;;;;;;;5078394;27;45304;-71
2022/12/02 07:33:16;;;;;;;;;62.75;47.00;;;;;;;;5080344;27;45623;-71
2022/12/02 07:35:41;;;;;;;;;65.50;45.75;;;;;;;;5085229;27;46600;-70
2022/12/02 07:38:06;;;;;;;;;62.00;46.25;;;;;;;;5080169;27;45431;-70
2022/12/02 07:40:31;;;;;;;;;60.50;47.25;;;;;;;;5078869;27;45358;-71
2022/12/02 07:42:57;;;;;;;;;58.50;45.75;;;;;;;;5077744;27;45452;-71
2022/12/02 07:45:22;;;;;;;;;60.50;48.50;;;;;;;;5077680;27;45190;-72
2022/12/02 07:47:47;;;;;;;;;67.50;49.25;;;;;;;;5078066;27;45368;-71
2022/12/02 07:50:14;;;;;;;;;60.25;47.25;;;;;;;;5078178;27;45303;-72
2022/12/02 07:52:39;;;;;;;;;63.25;47.25;;;;;;;;5077932;27;45312;-71
2022/12/02 07:55:04;;;;;;;;;70.00;46.75;;;;;;;;5083428;27;45481;-72
2022/12/02 07:57:30;;;;;;;;;63.25;47.00;;;;;;;;5079820;27;44886;-72
2022/12/02 07:59:55;;;;;;;;;60.00;44.75;;;;;;;;5077961;27;45275;-72
2022/12/02 08:02:20;;;;;;;;;61.50;45.75;;;;;;;;5080160;27;45321;-73
2022/12/02 08:04:45;;;;;;;;;53.00;42.50;;;;;;;;5077867;27;45520;-72
2022/12/02 08:07:11;;;;;;;;;64.00;49.25;;;;;;;;5076344;27;45850;-72
2022/12/02 08:09:36;;;;;;;;;58.00;47.00;;;;;;;;5077845;27;45442;-72
2022/12/02 08:12:01;;;;;;;;;68.00;50.00;;;;;;;;5089460;27;45444;-71
2022/12/02 08:14:26;;;;;;;;;62.50;46.50;;;;;;;;5078292;27;45386;-69
2022/12/02 08:16:52;;;;;;;;;61.00;43.00;;;;;;;;5077996;28;45444;-70
2022/12/02 08:19:17;;;;;;;;;65.50;50.75;;;;;;;;5080202;27;45408;-71
2022/12/02 08:21:42;;;;;;;;;62.75;48.50;;;;;;;;5077615;28;45285;-70
2022/12/02 08:24:07;;;;;;;;;65.00;47.25;;;;;;;;5082617;27;45901;-69
2022/12/02 08:26:33;;;;;;;;;59.00;48.25;;;;;;;;5077759;27;45331;-70
2022/12/02 08:28:58;;;;;;;;;60.25;47.00;;;;;;;;5081497;27;45149;-70
2022/12/02 08:31:23;;;;;;;;;65.50;47.25;;;;;;;;5077781;28;45401;-70
2022/12/02 08:33:49;;;;;;;;;67.50;52.75;;;;;;;;5085033;27;45566;-70
2022/12/02 08:36:14;;;;;;;;;59.00;43.50;;;;;;;;5082892;27;45372;-70
2022/12/02 08:38:40;;;;;;;;;65.00;49.00;;;;;;;;5084734;27;45427;-71
2022/12/02 08:41:05;;;;;;;;;66.50;51.00;;;;;;;;5080881;27;45347;-71
2022/12/02 08:43:31;;;;;;;;;60.50;46.25;;;;;;;;5086338;27;45973;-70
2022/12/02 08:45:56;;;;;;;;;58.50;47.00;;;;;;;;5081026;27;45313;-70
2022/12/02 08:48:21;;;;;;;;;60.25;47.50;;;;;;;;5084106;27;45366;-70
2022/12/02 08:50:46;;;;;;;;;68.25;50.00;;;;;;;;5081538;27;45347;-69
2022/12/02 08:53:11;;;;;;;;;70.75;50.50;;;;;;;;5083718;27;46622;-70
2022/12/02 08:55:37;;;;;;;;;70.00;50.25;;;;;;;;5081332;27;45400;-70
2022/12/02 08:58:02;;;;;;;;;63.50;49.25;;;;;;;;5089426;27;45291;-70
2022/12/02 09:00:27;;;;;;;;;69.25;53.25;;;;;;;;5084339;27;45256;-70
2022/12/02 09:02:52;;;;;;;;;68.25;50.75;;;;;;;;5098325;27;46340;-69
2022/12/02 09:05:18;;;;;;;;;68.50;52.75;;;;;;;;5085958;27;45461;-69
2022/12/02 09:07:43;;;;;;;;;66.75;50.75;;;;;;;;5083041;27;45283;-69
2022/12/02 09:10:09;;;;;;;;;66.25;51.75;;;;;;;;5087119;27;45804;-70
2022/12/02 09:12:34;;;;;;;;;60.75;45.25;;;;;;;;5080848;27;45344;-71
2022/12/02 09:14:59;;;;;;;;;68.00;51.00;;;;;;;;5082183;27;45423;-69
2022/12/02 09:17:25;;;;;;;;;69.00;50.25;;;;;;;;5081564;27;45387;-70
2022/12/02 09:19:50;;;;;;;;;65.50;48.00;;;;;;;;5082958;27;45268;-70
2022/12/02 09:22:15;;;;;;;;;64.00;48.25;;;;;;;;5080325;27;45375;-69
2022/12/02 09:24:40;;;;;;;;;68.00;53.00;;;;;;;;5087328;27;46214;-70
2022/12/02 09:27:05;;;;;;;;;70.00;53.75;;;;;;;;5080641;27;45268;-70
2022/12/02 09:29:30;;;;;;;;;63.25;47.50;;;;;;;;5082273;27;45328;-69
2022/12/02 09:31:56;;;;;;;;;70.25;51.00;;;;;;;;5080669;27;45468;-69
2022/12/02 09:34:21;;;;;;;;;66.25;51.00;;;;;;;;5088122;27;44873;-72
2022/12/02 09:36:46;;;;;;;;;64.50;51.00;;;;;;;;5081084;27;45347;-71
2022/12/02 09:39:11;;;;;;;;;64.25;48.75;;;;;;;;5087476;27;45423;-70
2022/12/02 09:41:37;;;;;;;;;57.00;47.50;;;;;;;;5081587;27;45276;-73
2022/12/02 09:44:03;;;;;;;;;63.50;50.50;;;;;;;;5081445;27;45418;-71
2022/12/02 09:46:28;;;;;;;;;68.00;52.00;;;;;;;;5082507;27;45359;-72
2022/12/02 09:48:54;;;;;;;;;60.50;44.00;;;;;;;;5082130;27;45314;-72
2022/12/02 09:51:19;;;;;;;;;69.00;51.50;;;;;;;;5078423;27;45344;-72
2022/12/02 09:53:45;;;;;;;;;63.25;44.25;;;;;;;;5082512;27;45541;-72
2022/12/02 09:56:15;;;;;;;;;64.25;47.75;;;;;;;;5080362;27;45271;-71
2022/12/02 09:58:41;;;;;;;;;70.75;50.25;;;;;;;;5082994;27;45946;-71
2022/12/02 10:01:10;;;;;;;;;63.50;52.75;;;;;;;;5082260;27;46401;-72
2022/12/02 10:03:35;;;;;;;;;70.75;51.00;;;;;;;;5079481;27;45267;-71
2022/12/02 10:06:03;;;;;;;;;62.50;48.00;;;;;;;;5085625;27;45520;-71
2022/12/02 10:08:28;;;;;;;;;65.75;49.75;;;;;;;;5081490;27;45488;-71
2022/12/02 10:10:55;;;;;;;;;60.75;46.75;;;;;;;;5086646;27;46465;-71
2022/12/02 10:13:23;;;;;;;;;68.50;51.25;;;;;;;;5083635;27;45394;-73
2022/12/02 10:15:48;;;;;;;;;66.75;50.25;;;;;;;;5078720;27;45282;-71
2022/12/02 10:18:16;;;;;;;;;75.00;53.25;;;;;;;;5080753;27;45775;-72
2022/12/02 10:20:42;;;;;;;;;68.50;48.50;;;;;;;;5078570;27;46284;-70
2022/12/02 10:23:10;;;;;;;;;68.00;48.75;;;;;;;;5080386;27;45513;-71
2022/12/02 10:25:36;;;;;;;;;67.25;50.50;;;;;;;;5078770;27;45620;-71
2022/12/02 10:28:01;;;;;;;;;66.00;51.25;;;;;;;;5089232;27;46154;-71
2022/12/02 10:30:27;;;;;;;;;74.75;53.50;;;;;;;;5078586;27;45711;-71
2022/12/02 10:32:59;;;;;;;;;68.00;53.00;;;;;;;;5077946;27;45612;-72
2022/12/02 10:35:25;;;;;;;;;64.75;49.00;;;;;;;;5082551;27;45395;-71
2022/12/02 10:37:50;;;;;;;;;69.75;51.50;;;;;;;;5078253;27;45465;-72
2022/12/02 10:40:17;;;;;;;;;69.75;53.25;;;;;;;;5086253;27;47100;-71
2022/12/02 10:42:43;;;;;;;;;69.75;53.00;;;;;;;;5084195;27;45315;-72
2022/12/02 10:45:08;;;;;;;;;70.00;52.75;;;;;;;;5078828;27;45731;-72
2022/12/02 10:47:33;;;;;;;;;71.25;53.75;;;;;;;;5078374;27;45406;-71
2022/12/02 10:49:58;;;;;;;;;67.00;49.75;;;;;;;;5080052;27;45356;-71
2022/12/02 10:52:30;;;;;;;;;68.75;55.00;;;;;;;;5077835;27;45283;-71
2022/12/02 10:54:57;;;;;;;;;64.00;51.00;;;;;;;;5079712;27;45381;-71
2022/12/02 10:57:27;;;;;;;;;66.00;51.00;;;;;;;;5078755;27;45399;-70
2022/12/02 10:59:56;;;;;;;;;59.50;50.25;;;;;;;;5089332;27;45587;-71
2022/12/02 11:02:44;;;;;;;;;69.75;53.75;;;;;;;;5093458;27;45355;-71
2022/12/02 11:05:30;;;;;;;;;72.50;50.00;;;;;;;;5090799;27;45358;-71
2022/12/02 11:08:06;;;;;;;;;65.50;49.25;;;;;;;;5082559;27;45277;-71
2022/12/02 11:10:33;;;;;;;;;65.75;51.75;;;;;;;;5079975;27;45280;-71
2022/12/02 11:13:00;;;;;;;;;74.00;55.00;;;;;;;;5076837;27;45254;-71
2022/12/02 11:15:31;;;;;;;;;69.75;52.00;;;;;;;;5078417;27;45270;-71
2022/12/02 11:17:56;;;;;;;;;65.25;52.25;;;;;;;;5090276;27;46390;-71
2022/12/02 11:20:24;;;;;;;;;71.00;53.00;;;;;;;;5082996;27;45308;-71
2022/12/02 11:22:58;;;;;;;;;65.25;51.50;;;;;;;;5076074;27;45438;-71
2022/12/02 11:25:42;;;;;;;;;70.00;52.00;;;;;;;;5083787;27;45487;-71
2022/12/02 11:28:13;;;;;;;;;60.75;46.75;;;;;;;;5077720;27;45350;-72
2022/12/02 11:30:38;;;;;;;;;66.50;47.00;;;;;;;;5086947;27;45281;-72
2022/12/02 11:33:08;;;;;;;;;65.00;51.25;;;;;;;;5096864;27;45470;-73
2022/12/02 11:35:52;;;;;;;;;60.50;47.50;;;;;;;;5080995;27;45326;-72
2022/12/02 11:38:18;;;;;;;;;60.00;47.75;;;;;;;;5079879;27;45348;-72
2022/12/02 11:40:44;;;;;;;;;67.50;50.50;;;;;;;;5084598;27;45453;-73
2022/12/02 11:43:28;;;;;;;;;67.75;51.50;;;;;;;;5077442;27;45509;-72
2022/12/02 11:45:55;;;;;;;;;70.00;51.25;;;;;;;;5078146;27;45342;-73
2022/12/02 11:48:21;;;;;;;;;71.25;55.00;;;;;;;;5083565;27;45349;-73
2022/12/02 11:50:46;;;;;;;;;64.00;52.25;;;;;;;;5082563;27;45452;-72
2022/12/02 11:53:19;;;;;;;;;76.25;52.50;;;;;;;;5078472;27;46329;-71
2022/12/02 11:55:46;;;;;;;;;62.50;44.75;;;;;;;;5090467;27;45375;-72
2022/12/02 11:58:31;;;;;;;;;70.25;50.00;;;;;;;;5082479;27;45876;-72
2022/12/02 12:01:05;;;;;;;;;66.25;49.00;;;;;;;;5085992;27;45444;-72
2022/12/02 12:03:31;;;;;;;;;72.25;50.75;;;;;;;;5079899;27;45583;-72
2022/12/02 12:06:13;;;;;;;;;63.75;49.50;;;;;;;;5081023;27;45559;-72
2022/12/02 12:08:41;;;;;;;;;56.00;47.00;;;;;;;;5079573;27;45742;-72
2022/12/02 12:11:25;;;;;;;;;68.50;51.75;;;;;;;;5082107;27;45323;-72
2022/12/02 12:14:02;;;;;;;;;64.25;48.50;;;;;;;;5082348;27;45528;-72
2022/12/02 12:16:31;;;;;;;;;68.75;50.25;;;;;;;;5080737;27;45257;-71
2022/12/02 12:18:58;;;;;;;;;67.00;50.50;;;;;;;;5085514;27;45367;-72
2022/12/02 12:21:29;;;;;;;;;62.25;49.00;;;;;;;;5081515;27;46893;-72
2022/12/02 12:23:54;;;;;;;;;67.25;51.25;;;;;;;;5081105;27;45192;-72
2022/12/02 12:26:30;;;;;;;;;76.00;57.25;;;;;;;;5088855;27;45416;-72
2022/12/02 12:28:59;;;;;;;;;85.25;62.75;;;;;;;;5084393;27;45366;-72
2022/12/02 12:31:25;;;;;;;;;77.67;64.33;;;;;;;;5089349;27;46249;-74
2022/12/02 12:33:50;;;;;;;;;70.25;54.50;;;;;;;;5085287;27;45983;-73
2022/12/02 12:36:15;;;;;;;;;73.00;53.75;;;;;;;;5091051;27;45981;-72
2022/12/02 12:38:40;;;;;;;;;74.50;57.75;;;;;;;;5085169;27;45475;-74
2022/12/02 12:41:05;;;;;;;;;78.00;59.25;;;;;;;;5083009;27;45540;-74
2022/12/02 12:43:31;;;;;;;;;74.25;57.75;;;;;;;;5083517;27;45254;-73
2022/12/02 12:45:56;;;;;;;;;66.75;53.00;;;;;;;;5087260;27;45509;-73
2022/12/02 12:48:21;;;;;;;;;62.75;45.75;;;;;;;;5082048;27;46909;-73
2022/12/02 12:50:46;;;;;;;;;65.50;52.00;;;;;;;;5087986;27;46799;-72
2022/12/02 12:53:11;;;;;;;;;61.50;48.25;;;;;;;;5083604;27;46171;-72
2022/12/02 12:55:37;;;;;;;;;58.50;43.25;;;;;;;;5083122;27;45335;-72
2022/12/02 12:58:02;;;;;;;;;66.25;48.75;;;;;;;;5082172;27;45247;-72
2022/12/02 13:00:27;;;;;;;;;76.50;56.00;;;;;;;;5083959;27;45478;-72
2022/12/02 13:02:52;;;;;;;;;102.33;81.67;;;;;;;;5093125;27;45265;-73
2022/12/02 13:05:18;;;;;;;;;71.25;53.25;;;;;;;;5081234;27;45526;-73
2022/12/02 13:07:43;;;;;;;;;67.25;50.25;;;;;;;;5081108;27;45259;-73
2022/12/02 13:10:08;;;;;;;;;67.00;51.50;;;;;;;;5088361;27;46522;-73
2022/12/02 13:12:33;;;;;;;;;67.75;49.75;;;;;;;;5080604;27;45246;-73
2022/12/02 13:14:59;;;;;;;;;69.50;49.50;;;;;;;;5089505;27;45517;-73
2022/12/02 13:17:24;;;;;;;;;61.25;47.50;;;;;;;;5080951;27;45215;-72
2022/12/02 13:19:49;;;;;;;;;71.00;53.00;;;;;;;;5088760;27;47799;-73
2022/12/02 13:22:14;;;;;;;;;69.50;49.75;;;;;;;;5082652;27;45255;-73
2022/12/02 13:24:39;;;;;;;;;59.75;45.75;;;;;;;;5082991;27;45624;-73
2022/12/02 13:27:05;;;;;;;;;68.00;50.75;;;;;;;;5078271;27;45840;-73
2022/12/02 13:29:30;;;;;;;;;71.25;51.00;;;;;;;;5082564;27;45275;-72
2022/12/02 13:31:55;;;;;;;;;67.00;49.50;;;;;;;;5079159;27;45283;-72
2022/12/02 13:34:20;;;;;;;;;66.00;47.50;;;;;;;;5083931;27;45470;-72
2022/12/02 13:36:45;;;;;;;;;59.00;47.00;;;;;;;;5091530;27;45459;-73
2022/12/02 13:39:12;;;;;;;;;60.75;50.50;;;;;;;;5093098;27;46939;-71
2022/12/02 13:41:37;;;;;;;;;68.00;52.75;;;;;;;;5080143;27;45370;-72
2022/12/02 13:44:03;;;;;;;;;64.00;50.50;;;;;;;;5081410;27;45376;-71
2022/12/02 13:46:28;;;;;;;;;63.25;48.00;;;;;;;;5079329;27;45156;-72
2022/12/02 13:48:53;;;;;;;;;73.50;54.75;;;;;;;;5082798;27;45513;-72
2022/12/02 13:51:18;;;;;;;;;57.75;45.25;;;;;;;;5089556;27;45395;-72
2022/12/02 13:53:44;;;;;;;;;61.75;47.00;;;;;;;;5096986;27;45476;-71
2022/12/02 13:56:09;;;;;;;;;64.50;49.00;;;;;;;;5087654;27;45387;-71
2022/12/02 13:58:34;;;;;;;;;65.50;49.50;;;;;;;;5086860;27;45560;-71
2022/12/02 14:00:59;;;;;;;;;68.00;50.75;;;;;;;;5083214;27;45394;-71
2022/12/02 14:03:24;;;;;;;;;58.00;45.00;;;;;;;;5080272;27;45311;-71
2022/12/02 14:05:49;;;;;;;;;59.75;45.50;;;;;;;;5079035;27;45924;-71
2022/12/02 14:08:15;;;;;;;;;67.75;47.25;;;;;;;;5086670;27;45462;-71
2022/12/02 14:10:40;;;;;;;;;67.25;50.00;;;;;;;;5082310;27;45330;-71
2022/12/02 14:13:05;;;;;;;;;68.50;49.00;;;;;;;;5079609;27;45497;-70
2022/12/02 14:15:30;;;;;;;;;71.00;52.75;;;;;;;;5081785;27;45265;-71